Latest Weather Observations for Newcastle Nobbys

IDN60901

Issued at 2:51 pm EDT Monday 20 February 2017 (issued every 10 minutes, with the page automatically refreshed every 10 minutes)

About weather observations | Map of Sydney area stations | Latest observations for Sydney area | Other Formats
Station Details ID: 061055 Name: NEWCASTLE NOBBYS SIGNAL STATION AWS Lat: -32.92 Lon: 151.80 Height: 33.0 m
Data from the previous 72 hours. | See also: Recent months at Newcastle Nobbys
Date/Time
EDT
Temp
°C
App
Temp
°C
Dew
Point
°C
Rel
Hum
%
Delta-T
°C
Wind Press
QNH
hPa
Press
MSL
hPa
Rain since
9am
mm
Dir  Spd
km/h
Gust
km/h
Spd
kts
Gust
kts
20/02:30pm 23.3 19.2 11.4 47 6.7 ESE 24 33 13 18 - - 0.0
20/02:00pm 25.7 23.3 9.9 37 8.7 W 13 30 7 16 - - 0.0
20/01:30pm 26.1 22.8 8.1 32 9.7 WNW 15 30 8 16 - - 0.0
20/01:00pm 25.9 22.5 7.5 31 9.8 WNW 15 26 8 14 - - 0.0
20/12:30pm 25.6 21.6 9.0 35 9.0 NW 20 30 11 16 - - 0.0
20/12:00pm 24.3 20.7 6.6 32 9.2 W 15 28 8 15 - - 0.0
20/11:30am 24.1 18.9 7.3 34 8.8 W 24 32 13 17 - - 0.0
20/11:00am 23.1 17.4 6.8 35 8.4 W 26 35 14 19 - - 0.0
20/10:30am 22.4 17.4 6.6 36 8.1 W 22 30 12 16 - - 0.0
20/10:00am 21.9 16.6 6.6 37 7.8 WNW 24 35 13 19 - - 0.0
20/09:30am 20.9 16.1 5.7 37 7.6 WSW 20 35 11 19 - - 0.0
20/09:00am 20.5 15.4 6.1 39 7.2 W 22 28 12 15 - - 0.2
20/08:30am 19.9 15.4 5.9 40 7.0 W 19 24 10 13 - - 0.2
20/08:00am 19.1 15.5 6.9 45 6.1 W 15 20 8 11 - - 0.2
20/07:30am 18.5 15.1 7.6 49 5.5 W 15 20 8 11 - - 0.2
20/07:00am 18.3 15.4 6.5 46 5.9 W 11 15 6 8 - - 0.2
20/06:30am 19.0 16.0 5.8 42 6.5 WSW 11 15 6 8 - - 0.2
20/06:00am 19.0 15.9 7.1 46 6.0 WSW 13 19 7 10 - - 0.2
20/05:30am 19.6 16.0 4.9 38 7.1 WSW 13 19 7 10 - - 0.2
20/05:00am 19.9 16.6 4.8 37 7.3 SW 11 20 6 11 - - 0.2
20/04:30am 20.2 16.8 5.8 39 7.2 WSW 13 17 7 9 - - 0.2
20/04:00am 20.1 17.1 9.1 49 5.8 W 15 22 8 12 - - 0.2
20/03:30am 20.9 18.0 9.8 49 6.0 WSW 15 22 8 12 - - 0.2
20/03:00am 20.1 18.4 12.6 62 4.2 W 13 19 7 10 - - 0.2
20/02:30am 19.4 19.4 15.1 76 2.5 WSW 9 15 5 8 - - 0.2
20/02:00am 20.3 21.8 18.8 91 0.9 SSW 9 15 5 8 - - 0.2
20/01:30am 20.6 23.1 19.1 91 0.9 SSW 4 7 2 4 - - 0.2
20/01:00am 20.7 22.8 19.0 90 1.1 SSW 6 11 3 6 - - 0.2
20/12:30am 20.7 22.3 19.2 91 0.9 W 9 11 5 6 - - 0.2
20/12:00am 21.0 23.0 19.1 89 1.2 WNW 7 9 4 5 - - 0.2
 
Date/Time
EDT
Temp
°C
App
Temp
°C
Dew
Point
°C
Rel
Hum
%
Delta-T
°C
Wind Press
QNH
hPa
Press
MSL
hPa
Rain since
9am
mm
Dir  Spd
km/h
Gust
km/h
Spd
kts
Gust
kts
19/11:30pm 20.7 21.3 18.5 87 1.4 SW 13 20 7 11 - - 0.2
19/11:00pm 21.0 22.9 18.9 88 1.3 WSW 7 13 4 7 - - 0.2
19/10:30pm 20.6 22.4 18.7 89 1.2 SW 7 13 4 7 - - 0.2
19/10:00pm 20.6 22.5 18.9 90 1.1 W 7 9 4 5 - - 0.2
19/09:30pm 20.6 22.6 18.7 89 1.2 NNW 6 9 3 5 - - 0.2
19/09:00pm 20.6 22.6 18.7 89 1.2 WNW 6 7 3 4 - - 0.2
19/08:30pm 20.6 23.2 18.5 88 1.3 NW 2 4 1 2 - - 0.2
19/08:00pm 20.8 21.4 18.6 87 1.4 NNW 13 17 7 9 - - 0.2
19/07:30pm 20.6 21.0 18.2 86 1.5 N 13 15 7 8 - - 0.2
19/07:00pm 20.6 22.4 18.7 89 1.2 N 7 9 4 5 - - 0.2
19/06:30pm 20.7 22.4 18.5 87 1.4 NNE 7 9 4 5 - - 0.2
19/06:00pm 21.1 23.8 18.7 86 1.5 SSE 2 4 1 2 - - 0.2
19/05:30pm 21.1 23.4 18.5 85 1.6 SW 4 7 2 4 - - 0.2
19/05:00pm 20.7 22.2 18.1 85 1.6 SSW 7 11 4 6 - - 0.2
19/04:30pm 20.6 21.6 17.8 84 1.7 SSW 9 13 5 7 - - 0.2
19/04:00pm 20.6 19.9 17.4 82 2.0 S 17 22 9 12 - - 0.2
19/03:30pm 20.4 19.5 17.8 85 1.6 S 19 20 10 11 - - 0.2
19/03:00pm 20.3 19.8 17.9 86 1.5 SSW 17 24 9 13 - - 0.2
19/02:30pm 20.4 19.3 17.2 82 2.0 SSW 19 24 10 13 - - 0.2
19/02:00pm 20.4 18.9 16.8 80 2.2 SSW 20 32 11 17 - - 0.2
19/01:30pm 20.5 18.5 16.5 78 2.4 SSW 22 30 12 16 - - 0.2
19/01:00pm 20.3 18.4 16.7 80 2.2 SSW 22 33 12 18 - - 0.2
19/12:30pm 20.3 18.6 17.3 83 1.8 SSW 22 32 12 17 - - 0.2
19/12:00pm 20.4 16.9 16.6 79 2.3 S 30 39 16 21 - - 0.2
19/11:30am 19.8 17.3 17.0 84 1.7 S 26 33 14 18 - - 0.2
19/11:00am 20.1 17.3 17.3 84 1.7 SSW 28 33 15 18 - - 0.2
19/10:30am 19.9 17.8 17.1 84 1.7 SSW 24 35 13 19 - - 0.0
19/10:00am 19.8 17.3 17.0 84 1.7 SSW 26 37 14 20 - - 0.0
19/09:30am 19.9 18.2 18.0 89 1.2 SSW 24 32 13 17 - - 0.0
19/09:00am 19.9 19.2 18.2 90 1.1 SW 19 30 10 16 - - 2.4
19/08:30am 20.0 18.3 18.1 89 1.2 SSW 24 39 13 21 - - 2.4
19/08:00am 19.9 17.8 18.0 89 1.2 SSW 26 37 14 20 - - 2.4
19/07:30am 20.0 17.7 18.5 91 0.9 SSW 28 39 15 21 - - 2.4
19/07:00am 19.9 17.7 18.6 92 0.8 SSW 28 41 15 22 - - 2.4
19/06:30am 20.4 20.4 18.9 91 0.9 SSW 17 32 9 17 - - 2.2
19/06:20am 20.4 18.2 18.7 90 1.1 SSW 28 46 15 25 - - 2.0
19/06:00am 20.4 19.2 18.5 89 1.2 SSW 22 35 12 19 - - 2.0
19/05:30am 20.5 18.0 18.8 90 1.1 SSW 30 41 16 22 - - 2.0
19/05:00am 21.1 19.8 19.0 88 1.3 SSW 24 35 13 19 - - 2.0
19/04:30am 21.1 19.1 19.2 89 1.2 SSW 28 37 15 20 - - 2.0
19/04:00am 21.1 19.2 19.4 90 1.1 SSW 28 39 15 21 - - 2.0
19/03:30am 21.5 22.4 20.1 92 0.9 SSW 15 24 8 13 - - 2.0
19/03:00am 21.9 22.2 20.5 92 0.9 SSW 19 30 10 16 - - 2.0
19/02:30am 21.9 22.9 20.2 90 1.1 SSW 15 20 8 11 - - 2.0
19/02:00am 22.0 22.3 20.3 90 1.1 SW 19 30 10 16 - - 2.0
19/01:30am 22.1 21.5 20.4 90 1.1 SSW 24 41 13 22 - - 2.0
19/01:00am 22.9 23.8 21.5 92 0.9 SW 19 30 10 16 - - 2.0
19/12:30am 23.0 23.7 21.6 92 0.9 SW 20 30 11 16 - - 2.0
19/12:00am 23.0 23.4 21.8 93 0.8 SW 22 35 12 19 - - 2.0
 
Date/Time
EDT
Temp
°C
App
Temp
°C
Dew
Point
°C
Rel
Hum
%
Delta-T
°C
Wind Press
QNH
hPa
Press
MSL
hPa
Rain since
9am
mm
Dir  Spd
km/h
Gust
km/h
Spd
kts
Gust
kts
18/11:30pm 22.9 22.4 21.5 92 0.9 SW 26 43 14 23 - - 2.0
18/11:00pm 22.7 23.4 21.5 93 0.8 SW 20 32 11 17 - - 2.0
18/10:30pm 22.3 21.8 20.8 91 1.0 SSW 24 33 13 18 - - 2.0
18/10:00pm 22.1 25.3 21.3 95 0.5 SW 6 15 3 8 - - 2.0
18/09:30pm 22.1 22.7 21.3 95 0.5 SSW 20 24 11 13 - - 2.0
18/09:00pm 22.4 24.1 21.7 96 0.5 S 15 19 8 10 - - 2.0
18/08:30pm 22.5 23.5 21.7 95 0.5 SSW 19 24 10 13 - - 2.0
18/08:00pm 22.6 24.3 21.6 94 0.7 SSW 15 22 8 12 - - 2.0
18/07:30pm 22.4 23.0 21.4 94 0.7 SE 20 28 11 15 - - 2.0
18/07:08pm 22.5 22.4 21.5 94 0.7 SSW 24 46 13 25 - - 2.0
18/07:00pm 22.8 24.5 21.6 93 0.8 SSW 15 22 8 12 - - 2.0
18/06:30pm 22.5 24.9 21.5 94 0.7 NE 11 19 6 10 - - 2.0
18/06:00pm 22.9 22.8 21.4 91 1.0 SSW 24 35 13 19 - - 0.0
18/05:30pm 22.3 23.1 20.6 90 1.1 S 17 22 9 12 - - 0.0
18/05:00pm 22.4 22.3 20.7 90 1.1 ESE 22 28 12 15 - - 0.0
18/04:30pm 23.0 22.6 20.9 88 1.4 ESE 24 30 13 16 - - 0.0
18/04:00pm 23.5 24.3 20.6 84 1.9 SE 17 20 9 11 - - 0.0
18/03:30pm 23.7 24.5 20.6 83 2.0 S 17 20 9 11 - - 0.0
18/03:00pm 23.8 24.8 20.3 81 2.3 SSE 15 17 8 9 - - 0.0
18/02:30pm 23.8 24.1 20.5 82 2.1 SE 19 22 10 12 - - 0.0
18/02:00pm 23.8 24.1 19.7 78 2.6 SE 17 19 9 10 - - 0.0
18/01:30pm 24.6 23.7 19.0 71 3.6 SE 22 28 12 15 - - 0.0
18/01:00pm 24.2 24.3 19.1 73 3.3 ESE 17 24 9 13 - - 0.0
18/12:30pm 24.7 24.2 18.6 69 3.9 SE 19 28 10 15 - - 0.0
18/12:00pm 24.6 23.6 18.8 70 3.7 ENE 22 28 12 15 - - 0.0
18/11:30am 24.2 22.9 19.1 73 3.3 ENE 24 32 13 17 - - 0.0
18/11:12am 26.8 26.3 17.8 57 5.7 ESE 17 33 9 18 - - 0.0
18/11:00am 31.8 30.7 18.7 45 8.5 NW 22 35 12 19 - - 0.0
18/10:30am 31.0 29.4 18.4 47 8.1 NW 24 32 13 17 - - 0.0
18/10:00am 29.4 28.6 18.5 52 7.0 NW 20 32 11 17 - - 0.0
18/09:30am 28.1 27.9 19.3 58 5.7 NW 19 24 10 13 - - 0.0
18/09:00am 23.9 25.5 20.0 79 2.5 N 11 13 6 7 - - 13.4
18/08:30am 24.1 25.0 19.2 74 3.1 NNW 13 17 7 9 - - 13.4
18/08:00am 22.8 23.3 19.2 80 2.3 N 15 17 8 9 - - 13.4
18/07:30am 21.8 22.3 19.2 85 1.6 NNW 15 17 8 9 - - 13.4
18/07:00am 21.7 21.9 19.3 86 1.5 NNW 17 20 9 11 - - 13.4
18/06:30am 22.0 22.2 19.4 85 1.7 NW 17 20 9 11 - - 13.4
18/06:00am 21.8 21.4 19.4 86 1.5 NW 20 24 11 13 - - 13.4
18/05:30am 22.0 21.3 19.4 85 1.7 NW 22 28 12 15 - - 13.4
18/05:00am 22.3 21.6 19.5 84 1.8 WNW 22 28 12 15 - - 13.4
18/04:30am 22.3 21.8 19.1 82 2.0 WNW 20 24 11 13 - - 13.4
18/04:00am 21.8 21.6 19.7 88 1.3 NW 20 28 11 15 - - 13.4
18/03:30am 21.9 21.7 19.8 88 1.3 NW 20 26 11 14 - - 13.4
18/03:00am 21.9 21.4 20.0 89 1.2 NW 22 30 12 16 - - 13.4
18/02:30am 22.0 22.0 20.1 89 1.2 NW 20 26 11 14 - - 13.4
18/02:00am 22.1 22.4 19.6 86 1.6 N 17 22 9 12 - - 13.4
18/01:30am 21.4 21.7 19.5 89 1.2 N 17 20 9 11 - - 13.4
18/01:00am 22.1 22.6 20.0 88 1.3 NNE 17 22 9 12 - - 13.4
18/12:30am 22.4 23.2 19.8 85 1.7 NE 15 20 8 11 - - 13.4
18/12:00am 22.5 23.4 20.0 86 1.6 ESE 15 17 8 9 - - 13.4
 
Date/Time
EDT
Temp
°C
App
Temp
°C
Dew
Point
°C
Rel
Hum
%
Delta-T
°C
Wind Press
QNH
hPa
Press
MSL
hPa
Rain since
9am
mm
Dir  Spd
km/h
Gust
km/h
Spd
kts
Gust
kts
17/11:30pm 22.0 22.8 19.9 88 1.3 ESE 15 17 8 9 - - 13.4
17/11:00pm 21.9 24.1 19.6 87 1.5 SSE 7 11 4 6 - - 13.4
17/10:30pm 22.1 22.0 19.5 85 1.7 SSW 19 24 10 13 - - 13.2
17/10:00pm 22.2 23.1 19.2 83 1.9 S 13 20 7 11 - - 13.2
17/09:30pm 22.8 24.5 19.4 81 2.2 NE 9 15 5 8 - - 13.2
17/09:00pm 22.8 24.1 19.2 80 2.3 N 11 19 6 10 - - 13.2
17/08:30pm 23.7 24.5 19.0 75 3.0 NW 13 20 7 11 - - 13.2
17/08:00pm 24.1 25.5 18.7 72 3.4 W 9 13 5 7 - - 13.2
17/07:30pm 24.0 25.6 19.1 74 3.1 NNW 9 13 5 7 - - 13.2
17/07:00pm 23.9 22.5 18.8 73 3.2 NE 24 37 13 20 - - 13.2
17/06:30pm 21.9 19.3 19.8 88 1.3 NE 33 46 18 25 - - 13.2
17/06:22pm 22.0 18.2 19.7 87 1.5 NNE 39 54 21 29 - - 13.2
17/06:15pm 23.1 20.8 19.3 79 2.4 N 30 54 16 29 - - 13.2
17/06:04pm 24.8 22.1 18.5 68 4.0 NW 30 48 16 26 - - 13.0
17/06:00pm 25.0 20.9 18.2 66 4.3 WNW 37 48 20 26 - - 13.0
17/05:47pm 26.3 25.3 21.3 74 3.3 NW 28 56 15 30 - - 12.6
17/05:30pm 25.7 24.3 20.5 73 3.4 ENE 28 39 15 21 - - 12.6
17/05:00pm 25.9 24.9 20.5 72 3.5 ENE 26 37 14 20 - - 12.6
17/04:30pm 25.6 24.9 20.2 72 3.5 ENE 24 33 13 18 - - 12.6
17/04:00pm 24.3 22.9 20.4 79 2.5 ENE 28 35 15 19 - - 12.6
17/03:30pm 25.1 24.9 20.6 76 2.9 ENE 22 28 12 15 - - 12.6
17/03:00pm 25.0 24.0 20.5 76 2.9 E 26 32 14 17 - - 12.6

Latest Capital City Observations: Canberra | Sydney | Melbourne | Brisbane | Adelaide | Perth | Hobart | Darwin

Other Formats:

Comma delimited format used in spreadsheet applications
http://www.bom.gov.au/fwo/IDN60901/IDN60901.94774.axf

JavaScript Object Notation format (JSON) in row-major order
http://www.bom.gov.au/fwo/IDN60901/IDN60901.94774.json